sensor_id;sensor_type;location;lat;lon;timestamp;temperature;humidity
55828;DHT22;41758;51.992;5.890;2022-12-15T00:01:09;3.90;69.70
55828;DHT22;41758;51.992;5.890;2022-12-15T00:03:53;3.80;69.60
55828;DHT22;41758;51.992;5.890;2022-12-15T00:06:37;3.80;69.50
55828;DHT22;41758;51.992;5.890;2022-12-15T00:09:21;3.70;69.30
55828;DHT22;41758;51.992;5.890;2022-12-15T00:12:05;3.70;69.40
55828;DHT22;41758;51.992;5.890;2022-12-15T00:14:49;3.70;69.50
55828;DHT22;41758;51.992;5.890;2022-12-15T00:17:34;3.70;69.60
55828;DHT22;41758;51.992;5.890;2022-12-15T00:20:18;3.70;69.80
55828;DHT22;41758;51.992;5.890;2022-12-15T00:23:07;3.70;69.60
55828;DHT22;41758;51.992;5.890;2022-12-15T00:25:51;3.70;69.80
55828;DHT22;41758;51.992;5.890;2022-12-15T00:28:35;3.70;69.70
55828;DHT22;41758;51.992;5.890;2022-12-15T00:31:19;3.70;69.80
55828;DHT22;41758;51.992;5.890;2022-12-15T00:34:03;3.70;69.70
55828;DHT22;41758;51.992;5.890;2022-12-15T00:36:48;3.70;69.80
55828;DHT22;41758;51.992;5.890;2022-12-15T00:39:32;3.70;70.00
55828;DHT22;41758;51.992;5.890;2022-12-15T00:41:58;3.80;70.00
55828;DHT22;41758;51.992;5.890;2022-12-15T00:44:23;3.70;69.90
55828;DHT22;41758;51.992;5.890;2022-12-15T00:46:49;3.70;70.10
55828;DHT22;41758;51.992;5.890;2022-12-15T00:49:21;3.80;70.00
55828;DHT22;41758;51.992;5.890;2022-12-15T00:52:05;3.80;70.00
55828;DHT22;41758;51.992;5.890;2022-12-15T00:54:50;3.80;70.00
55828;DHT22;41758;51.992;5.890;2022-12-15T00:57:34;3.80;70.00
55828;DHT22;41758;51.992;5.890;2022-12-15T01:00:18;3.80;70.00
55828;DHT22;41758;51.992;5.890;2022-12-15T01:03:16;3.80;70.00
55828;DHT22;41758;51.992;5.890;2022-12-15T01:06:05;3.80;70.00
55828;DHT22;41758;51.992;5.890;2022-12-15T01:08:49;3.80;70.20
55828;DHT22;41758;51.992;5.890;2022-12-15T01:11:33;3.80;70.20
55828;DHT22;41758;51.992;5.890;2022-12-15T01:14:17;3.80;70.10
55828;DHT22;41758;51.992;5.890;2022-12-15T01:17:01;3.80;69.90
55828;DHT22;41758;51.992;5.890;2022-12-15T01:19:46;3.70;69.90
55828;DHT22;41758;51.992;5.890;2022-12-15T01:22:30;3.70;69.90
55828;DHT22;41758;51.992;5.890;2022-12-15T01:24:56;3.70;69.90
55828;DHT22;41758;51.992;5.890;2022-12-15T01:27:21;3.70;69.90
55828;DHT22;41758;51.992;5.890;2022-12-15T01:29:47;3.70;69.50
55828;DHT22;41758;51.992;5.890;2022-12-15T01:32:13;3.70;69.80
55828;DHT22;41758;51.992;5.890;2022-12-15T01:34:38;3.70;69.90
55828;DHT22;41758;51.992;5.890;2022-12-15T01:37:04;3.60;70.00
55828;DHT22;41758;51.992;5.890;2022-12-15T01:39:29;3.70;70.00
55828;DHT22;41758;51.992;5.890;2022-12-15T01:42:15;3.70;70.00
55828;DHT22;41758;51.992;5.890;2022-12-15T01:44:42;3.70;70.10
55828;DHT22;41758;51.992;5.890;2022-12-15T01:47:08;3.80;70.20
55828;DHT22;41758;51.992;5.890;2022-12-15T01:49:35;3.80;70.30
55828;DHT22;41758;51.992;5.890;2022-12-15T01:52:01;3.80;70.30
55828;DHT22;41758;51.992;5.890;2022-12-15T01:54:29;3.90;70.30
55828;DHT22;41758;51.992;5.890;2022-12-15T01:57:01;3.90;70.20
55828;DHT22;41758;51.992;5.890;2022-12-15T01:59:33;3.90;70.20
55828;DHT22;41758;51.992;5.890;2022-12-15T02:02:00;4.00;70.30
55828;DHT22;41758;51.992;5.890;2022-12-15T02:04:26;4.00;70.20
55828;DHT22;41758;51.992;5.890;2022-12-15T02:06:52;4.00;70.20
55828;DHT22;41758;51.992;5.890;2022-12-15T02:09:18;4.10;70.20
55828;DHT22;41758;51.992;5.890;2022-12-15T02:17:15;4.20;70.20
55828;DHT22;41758;51.992;5.890;2022-12-15T02:19:48;4.20;70.00
55828;DHT22;41758;51.992;5.890;2022-12-15T02:22:33;4.10;69.90
55828;DHT22;41758;51.992;5.890;2022-12-15T02:28:02;4.10;69.90
55828;DHT22;41758;51.992;5.890;2022-12-15T02:33:33;4.00;69.70
55828;DHT22;41758;51.992;5.890;2022-12-15T02:36:44;4.00;69.80
55828;DHT22;41758;51.992;5.890;2022-12-15T02:38:50;3.90;69.80
55828;DHT22;41758;51.992;5.890;2022-12-15T02:41:35;3.90;69.70
55828;DHT22;41758;51.992;5.890;2022-12-15T02:44:02;3.90;69.60
55828;DHT22;41758;51.992;5.890;2022-12-15T02:46:34;3.80;69.50
55828;DHT22;41758;51.992;5.890;2022-12-15T02:54:08;3.80;69.70
55828;DHT22;41758;51.992;5.890;2022-12-15T02:56:48;3.80;69.80
55828;DHT22;41758;51.992;5.890;2022-12-15T03:01:49;3.90;69.80
55828;DHT22;41758;51.992;5.890;2022-12-15T03:04:15;3.80;69.60
55828;DHT22;41758;51.992;5.890;2022-12-15T03:06:42;3.90;69.50
55828;DHT22;41758;51.992;5.890;2022-12-15T03:09:08;3.90;69.50
55828;DHT22;41758;51.992;5.890;2022-12-15T03:11:34;3.90;69.40
55828;DHT22;41758;51.992;5.890;2022-12-15T03:13:59;3.90;69.70
55828;DHT22;41758;51.992;5.890;2022-12-15T03:16:25;3.90;69.80
55828;DHT22;41758;51.992;5.890;2022-12-15T03:18:51;4.00;69.60
55828;DHT22;41758;51.992;5.890;2022-12-15T03:21:16;3.90;69.40
55828;DHT22;41758;51.992;5.890;2022-12-15T03:23:42;3.90;69.50
55828;DHT22;41758;51.992;5.890;2022-12-15T03:26:07;3.90;69.30
55828;DHT22;41758;51.992;5.890;2022-12-15T03:28:33;3.80;69.30
55828;DHT22;41758;51.992;5.890;2022-12-15T03:30:59;3.80;69.30
55828;DHT22;41758;51.992;5.890;2022-12-15T03:33:24;3.80;69.50
55828;DHT22;41758;51.992;5.890;2022-12-15T03:35:50;3.80;69.30
55828;DHT22;41758;51.992;5.890;2022-12-15T03:38:16;3.80;69.50
55828;DHT22;41758;51.992;5.890;2022-12-15T03:40:41;3.80;69.50
55828;DHT22;41758;51.992;5.890;2022-12-15T03:43:07;3.80;69.60
55828;DHT22;41758;51.992;5.890;2022-12-15T03:45:33;3.80;69.60
55828;DHT22;41758;51.992;5.890;2022-12-15T03:47:58;3.80;69.50
55828;DHT22;41758;51.992;5.890;2022-12-15T03:50:25;3.70;69.40
55828;DHT22;41758;51.992;5.890;2022-12-15T03:52:51;3.70;69.50
55828;DHT22;41758;51.992;5.890;2022-12-15T03:55:18;3.60;69.50
55828;DHT22;41758;51.992;5.890;2022-12-15T03:57:43;3.60;69.60
55828;DHT22;41758;51.992;5.890;2022-12-15T04:00:11;3.60;69.60
55828;DHT22;41758;51.992;5.890;2022-12-15T04:02:39;3.60;69.70
55828;DHT22;41758;51.992;5.890;2022-12-15T04:05:05;3.60;69.60
55828;DHT22;41758;51.992;5.890;2022-12-15T04:07:31;3.60;69.80
55828;DHT22;41758;51.992;5.890;2022-12-15T04:09:56;3.60;69.90
55828;DHT22;41758;51.992;5.890;2022-12-15T04:12:22;3.60;69.90
55828;DHT22;41758;51.992;5.890;2022-12-15T04:14:48;3.60;69.70
55828;DHT22;41758;51.992;5.890;2022-12-15T04:17:13;3.60;69.80
55828;DHT22;41758;51.992;5.890;2022-12-15T04:19:39;3.60;69.70
55828;DHT22;41758;51.992;5.890;2022-12-15T04:22:23;3.60;69.80
55828;DHT22;41758;51.992;5.890;2022-12-15T04:24:49;3.60;69.70
55828;DHT22;41758;51.992;5.890;2022-12-15T04:27:33;3.60;69.60
55828;DHT22;41758;51.992;5.890;2022-12-15T04:30:17;3.60;69.50
55828;DHT22;41758;51.992;5.890;2022-12-15T04:33:02;3.50;69.50
55828;DHT22;41758;51.992;5.890;2022-12-15T04:35:46;3.50;69.50
55828;DHT22;41758;51.992;5.890;2022-12-15T04:38:31;3.50;69.80
55828;DHT22;41758;51.992;5.890;2022-12-15T04:41:15;3.50;69.40
55828;DHT22;41758;51.992;5.890;2022-12-15T04:44:00;3.50;69.80
55828;DHT22;41758;51.992;5.890;2022-12-15T04:46:45;3.60;69.80
55828;DHT22;41758;51.992;5.890;2022-12-15T04:49:29;3.60;69.70
55828;DHT22;41758;51.992;5.890;2022-12-15T04:52:14;3.60;69.60
55828;DHT22;41758;51.992;5.890;2022-12-15T04:54:58;3.60;69.70
55828;DHT22;41758;51.992;5.890;2022-12-15T04:57:42;3.50;69.60
55828;DHT22;41758;51.992;5.890;2022-12-15T05:00:26;3.50;69.50
55828;DHT22;41758;51.992;5.890;2022-12-15T05:03:11;3.40;69.10
55828;DHT22;41758;51.992;5.890;2022-12-15T05:05:56;3.40;69.30
55828;DHT22;41758;51.992;5.890;2022-12-15T05:08:40;3.40;69.70
55828;DHT22;41758;51.992;5.890;2022-12-15T05:11:24;3.50;69.80
55828;DHT22;41758;51.992;5.890;2022-12-15T05:14:08;3.50;69.80
55828;DHT22;41758;51.992;5.890;2022-12-15T05:16:53;3.50;69.60
55828;DHT22;41758;51.992;5.890;2022-12-15T05:19:37;3.60;69.40
55828;DHT22;41758;51.992;5.890;2022-12-15T05:22:21;3.60;69.20
55828;DHT22;41758;51.992;5.890;2022-12-15T05:25:06;3.50;69.40
55828;DHT22;41758;51.992;5.890;2022-12-15T05:27:50;3.60;69.30
55828;DHT22;41758;51.992;5.890;2022-12-15T05:30:34;3.60;69.60
55828;DHT22;41758;51.992;5.890;2022-12-15T05:33:19;3.50;69.50
55828;DHT22;41758;51.992;5.890;2022-12-15T05:35:44;3.60;69.50
55828;DHT22;41758;51.992;5.890;2022-12-15T05:38:10;3.60;69.30
55828;DHT22;41758;51.992;5.890;2022-12-15T05:40:36;3.50;69.10
55828;DHT22;41758;51.992;5.890;2022-12-15T05:43:01;3.50;69.10
55828;DHT22;41758;51.992;5.890;2022-12-15T05:45:27;3.50;68.90
55828;DHT22;41758;51.992;5.890;2022-12-15T05:47:53;3.40;68.80
55828;DHT22;41758;51.992;5.890;2022-12-15T05:50:19;3.40;68.80
55828;DHT22;41758;51.992;5.890;2022-12-15T05:52:45;3.40;68.80
55828;DHT22;41758;51.992;5.890;2022-12-15T05:55:11;3.30;68.90
55828;DHT22;41758;51.992;5.890;2022-12-15T05:57:37;3.40;68.80
55828;DHT22;41758;51.992;5.890;2022-12-15T06:00:03;3.30;69.10
55828;DHT22;41758;51.992;5.890;2022-12-15T06:02:37;3.40;69.30
55828;DHT22;41758;51.992;5.890;2022-12-15T06:05:03;3.30;69.40
55828;DHT22;41758;51.992;5.890;2022-12-15T06:07:28;3.30;69.20
55828;DHT22;41758;51.992;5.890;2022-12-15T06:09:54;3.30;69.10
55828;DHT22;41758;51.992;5.890;2022-12-15T06:12:23;3.30;69.00
55828;DHT22;41758;51.992;5.890;2022-12-15T06:14:49;3.30;69.20
55828;DHT22;41758;51.992;5.890;2022-12-15T06:17:15;3.30;68.90
55828;DHT22;41758;51.992;5.890;2022-12-15T06:19:40;3.30;69.00
55828;DHT22;41758;51.992;5.890;2022-12-15T06:22:06;3.30;69.00
55828;DHT22;41758;51.992;5.890;2022-12-15T06:24:31;3.30;69.30
55828;DHT22;41758;51.992;5.890;2022-12-15T06:26:57;3.30;69.40
55828;DHT22;41758;51.992;5.890;2022-12-15T06:29:23;3.30;69.20
55828;DHT22;41758;51.992;5.890;2022-12-15T06:31:49;3.30;69.20
55828;DHT22;41758;51.992;5.890;2022-12-15T06:34:15;3.30;68.90
55828;DHT22;41758;51.992;5.890;2022-12-15T06:36:41;3.30;68.60
55828;DHT22;41758;51.992;5.890;2022-12-15T06:39:09;3.20;68.30
55828;DHT22;41758;51.992;5.890;2022-12-15T06:41:35;3.20;69.10
55828;DHT22;41758;51.992;5.890;2022-12-15T06:44:00;3.30;69.40
55828;DHT22;41758;51.992;5.890;2022-12-15T06:46:27;3.30;69.50
55828;DHT22;41758;51.992;5.890;2022-12-15T06:48:53;3.30;69.30
55828;DHT22;41758;51.992;5.890;2022-12-15T06:51:18;3.30;69.30
55828;DHT22;41758;51.992;5.890;2022-12-15T06:53:44;3.30;69.50
55828;DHT22;41758;51.992;5.890;2022-12-15T06:56:21;3.30;69.40
55828;DHT22;41758;51.992;5.890;2022-12-15T06:58:48;3.30;69.40
55828;DHT22;41758;51.992;5.890;2022-12-15T07:01:14;3.30;69.10
55828;DHT22;41758;51.992;5.890;2022-12-15T07:03:40;3.30;69.20
55828;DHT22;41758;51.992;5.890;2022-12-15T07:06:07;3.30;68.70
55828;DHT22;41758;51.992;5.890;2022-12-15T07:08:33;3.30;68.80
55828;DHT22;41758;51.992;5.890;2022-12-15T07:11:01;3.30;69.00
55828;DHT22;41758;51.992;5.890;2022-12-15T07:13:26;3.20;69.20
55828;DHT22;41758;51.992;5.890;2022-12-15T07:15:52;3.30;69.10
55828;DHT22;41758;51.992;5.890;2022-12-15T07:18:17;3.20;69.10
55828;DHT22;41758;51.992;5.890;2022-12-15T07:20:44;3.20;69.20
55828;DHT22;41758;51.992;5.890;2022-12-15T07:23:10;3.20;68.90
55828;DHT22;41758;51.992;5.890;2022-12-15T07:25:36;3.20;69.00
55828;DHT22;41758;51.992;5.890;2022-12-15T07:28:02;3.10;69.20
55828;DHT22;41758;51.992;5.890;2022-12-15T07:30:28;3.10;68.80
55828;DHT22;41758;51.992;5.890;2022-12-15T07:32:53;3.10;69.20
55828;DHT22;41758;51.992;5.890;2022-12-15T07:35:19;3.10;69.20
55828;DHT22;41758;51.992;5.890;2022-12-15T07:37:45;3.30;71.10
55828;DHT22;41758;51.992;5.890;2022-12-15T07:40:10;3.40;71.40
55828;DHT22;41758;51.992;5.890;2022-12-15T07:42:36;3.50;71.50
55828;DHT22;41758;51.992;5.890;2022-12-15T07:45:02;3.50;71.90
55828;DHT22;41758;51.992;5.890;2022-12-15T07:47:28;3.50;71.50
55828;DHT22;41758;51.992;5.890;2022-12-15T07:49:54;3.60;70.80
55828;DHT22;41758;51.992;5.890;2022-12-15T07:52:19;3.60;71.40
55828;DHT22;41758;51.992;5.890;2022-12-15T07:54:45;3.70;71.70
55828;DHT22;41758;51.992;5.890;2022-12-15T07:57:11;3.70;71.40
55828;DHT22;41758;51.992;5.890;2022-12-15T07:59:36;3.70;71.20
55828;DHT22;41758;51.992;5.890;2022-12-15T08:02:02;3.70;70.70
55828;DHT22;41758;51.992;5.890;2022-12-15T08:04:31;3.70;71.00
55828;DHT22;41758;51.992;5.890;2022-12-15T08:06:57;3.70;71.10
55828;DHT22;41758;51.992;5.890;2022-12-15T08:09:23;3.70;71.10
55828;DHT22;41758;51.992;5.890;2022-12-15T08:11:48;3.70;70.90
55828;DHT22;41758;51.992;5.890;2022-12-15T08:14:15;3.80;70.60
55828;DHT22;41758;51.992;5.890;2022-12-15T08:16:41;3.80;70.70
55828;DHT22;41758;51.992;5.890;2022-12-15T08:19:08;3.80;70.70
55828;DHT22;41758;51.992;5.890;2022-12-15T08:21:35;3.80;70.80
55828;DHT22;41758;51.992;5.890;2022-12-15T08:24:00;3.80;70.60
55828;DHT22;41758;51.992;5.890;2022-12-15T08:26:26;3.90;70.70
55828;DHT22;41758;51.992;5.890;2022-12-15T08:28:52;3.90;70.80
55828;DHT22;41758;51.992;5.890;2022-12-15T08:31:18;3.90;70.70
55828;DHT22;41758;51.992;5.890;2022-12-15T08:33:45;3.90;70.50
55828;DHT22;41758;51.992;5.890;2022-12-15T08:36:11;3.90;70.40
55828;DHT22;41758;51.992;5.890;2022-12-15T08:38:38;3.90;70.50
55828;DHT22;41758;51.992;5.890;2022-12-15T08:41:08;3.90;70.40
55828;DHT22;41758;51.992;5.890;2022-12-15T08:43:34;4.00;70.30
55828;DHT22;41758;51.992;5.890;2022-12-15T08:45:59;4.00;70.30
55828;DHT22;41758;51.992;5.890;2022-12-15T08:48:25;4.10;70.20
55828;DHT22;41758;51.992;5.890;2022-12-15T08:50:50;4.10;70.00
55828;DHT22;41758;51.992;5.890;2022-12-15T08:53:16;4.10;69.70
55828;DHT22;41758;51.992;5.890;2022-12-15T08:55:41;4.00;69.60
55828;DHT22;41758;51.992;5.890;2022-12-15T08:58:07;4.00;69.40
55828;DHT22;41758;51.992;5.890;2022-12-15T09:00:33;3.90;69.30
55828;DHT22;41758;51.992;5.890;2022-12-15T09:02:58;3.90;68.80
55828;DHT22;41758;51.992;5.890;2022-12-15T09:05:25;3.80;68.90
55828;DHT22;41758;51.992;5.890;2022-12-15T09:07:54;3.80;69.10
55828;DHT22;41758;51.992;5.890;2022-12-15T09:10:21;3.80;69.00
55828;DHT22;41758;51.992;5.890;2022-12-15T09:12:47;3.80;69.10
55828;DHT22;41758;51.992;5.890;2022-12-15T09:15:12;3.80;69.10
55828;DHT22;41758;51.992;5.890;2022-12-15T09:17:38;3.70;69.30
55828;DHT22;41758;51.992;5.890;2022-12-15T09:20:04;3.80;69.30
55828;DHT22;41758;51.992;5.890;2022-12-15T09:22:30;3.80;69.50
55828;DHT22;41758;51.992;5.890;2022-12-15T09:24:56;3.80;69.20
55828;DHT22;41758;51.992;5.890;2022-12-15T09:27:21;3.80;68.60
55828;DHT22;41758;51.992;5.890;2022-12-15T09:29:47;3.80;68.50
55828;DHT22;41758;51.992;5.890;2022-12-15T09:32:13;3.70;68.50
55828;DHT22;41758;51.992;5.890;2022-12-15T09:34:41;3.60;68.70
55828;DHT22;41758;51.992;5.890;2022-12-15T09:37:19;3.60;69.10
55828;DHT22;41758;51.992;5.890;2022-12-15T09:39:45;3.60;68.80
55828;DHT22;41758;51.992;5.890;2022-12-15T09:42:44;3.70;69.10
55828;DHT22;41758;51.992;5.890;2022-12-15T09:45:14;3.70;69.30
55828;DHT22;41758;51.992;5.890;2022-12-15T09:50:14;3.90;70.20
55828;DHT22;41758;51.992;5.890;2022-12-15T09:52:47;4.10;70.70
55828;DHT22;41758;51.992;5.890;2022-12-15T09:55:18;4.30;70.90
55828;DHT22;41758;51.992;5.890;2022-12-15T09:58:07;4.40;70.60
55828;DHT22;41758;51.992;5.890;2022-12-15T10:05:45;4.70;70.50
55828;DHT22;41758;51.992;5.890;2022-12-15T10:08:12;4.80;70.50
55828;DHT22;41758;51.992;5.890;2022-12-15T10:10:51;4.80;70.40
55828;DHT22;41758;51.992;5.890;2022-12-15T10:13:25;4.90;70.30
55828;DHT22;41758;51.992;5.890;2022-12-15T10:18:40;5.00;70.20
55828;DHT22;41758;51.992;5.890;2022-12-15T10:21:11;5.00;70.20
55828;DHT22;41758;51.992;5.890;2022-12-15T10:23:40;5.00;70.10
55828;DHT22;41758;51.992;5.890;2022-12-15T10:31:22;5.10;70.30
55828;DHT22;41758;51.992;5.890;2022-12-15T10:33:56;5.00;70.20
55828;DHT22;41758;51.992;5.890;2022-12-15T10:36:25;5.00;70.50
55828;DHT22;41758;51.992;5.890;2022-12-15T10:38:51;5.10;70.70
55828;DHT22;41758;51.992;5.890;2022-12-15T10:41:20;5.10;70.60
55828;DHT22;41758;51.992;5.890;2022-12-15T10:43:47;5.10;70.60
55828;DHT22;41758;51.992;5.890;2022-12-15T10:46:17;5.10;70.60
55828;DHT22;41758;51.992;5.890;2022-12-15T10:48:47;5.30;70.70
55828;DHT22;41758;51.992;5.890;2022-12-15T10:53:43;5.30;70.10
55828;DHT22;41758;51.992;5.890;2022-12-15T10:56:16;5.30;70.00
55828;DHT22;41758;51.992;5.890;2022-12-15T10:58:48;5.30;70.30
55828;DHT22;41758;51.992;5.890;2022-12-15T11:01:16;5.40;70.40
55828;DHT22;41758;51.992;5.890;2022-12-15T11:03:42;5.50;70.50
55828;DHT22;41758;51.992;5.890;2022-12-15T11:06:18;5.60;70.60
55828;DHT22;41758;51.992;5.890;2022-12-15T11:08:44;5.70;70.40
55828;DHT22;41758;51.992;5.890;2022-12-15T11:14:16;6.10;70.80
55828;DHT22;41758;51.992;5.890;2022-12-15T11:16:46;6.30;70.40
55828;DHT22;41758;51.992;5.890;2022-12-15T11:19:14;6.40;69.70
55828;DHT22;41758;51.992;5.890;2022-12-15T11:21:43;6.50;69.80
55828;DHT22;41758;51.992;5.890;2022-12-15T11:31:48;7.20;70.20
55828;DHT22;41758;51.992;5.890;2022-12-15T11:34:15;7.40;69.50
55828;DHT22;41758;51.992;5.890;2022-12-15T11:36:52;7.70;69.60
55828;DHT22;41758;51.992;5.890;2022-12-15T11:41:56;8.10;69.90
55828;DHT22;41758;51.992;5.890;2022-12-15T11:44:29;8.40;70.10
55828;DHT22;41758;51.992;5.890;2022-12-15T11:47:02;8.70;70.40
55828;DHT22;41758;51.992;5.890;2022-12-15T11:49:45;8.90;70.10
55828;DHT22;41758;51.992;5.890;2022-12-15T11:52:28;9.00;70.10
55828;DHT22;41758;51.992;5.890;2022-12-15T12:00:27;9.30;70.50
55828;DHT22;41758;51.992;5.890;2022-12-15T12:05:41;9.50;71.00
55828;DHT22;41758;51.992;5.890;2022-12-15T12:20:58;9.60;69.30
55828;DHT22;41758;51.992;5.890;2022-12-15T12:26:18;9.30;69.80
55828;DHT22;41758;51.992;5.890;2022-12-15T12:32:01;9.10;69.80
55828;DHT22;41758;51.992;5.890;2022-12-15T12:34:00;9.00;69.80
55828;DHT22;41758;51.992;5.890;2022-12-15T12:36:27;8.90;69.90
55828;DHT22;41758;51.992;5.890;2022-12-15T12:38:54;8.80;69.60
55828;DHT22;41758;51.992;5.890;2022-12-15T12:41:33;8.80;69.90
55828;DHT22;41758;51.992;5.890;2022-12-15T12:44:05;8.90;69.80
55828;DHT22;41758;51.992;5.890;2022-12-15T12:46:33;8.90;69.90
55828;DHT22;41758;51.992;5.890;2022-12-15T12:49:23;8.80;69.30
55828;DHT22;41758;51.992;5.890;2022-12-15T12:51:51;8.80;69.20
55828;DHT22;41758;51.992;5.890;2022-12-15T12:59:37;8.70;70.20
55828;DHT22;41758;51.992;5.890;2022-12-15T13:04:39;8.80;70.70
55828;DHT22;41758;51.992;5.890;2022-12-15T13:12:57;9.10;71.00
55828;DHT22;41758;51.992;5.890;2022-12-15T13:20:30;9.20;70.00
55828;DHT22;41758;51.992;5.890;2022-12-15T13:25:44;9.20;70.20
55828;DHT22;41758;51.992;5.890;2022-12-15T13:33:38;9.00;69.70
55828;DHT22;41758;51.992;5.890;2022-12-15T13:36:09;8.90;69.60
55828;DHT22;41758;51.992;5.890;2022-12-15T13:38:49;8.90;69.40
55828;DHT22;41758;51.992;5.890;2022-12-15T13:41:22;8.90;69.70
55828;DHT22;41758;51.992;5.890;2022-12-15T13:43:48;8.90;69.90
55828;DHT22;41758;51.992;5.890;2022-12-15T13:46:17;8.90;70.20
55828;DHT22;41758;51.992;5.890;2022-12-15T13:49:07;8.80;70.40
55828;DHT22;41758;51.992;5.890;2022-12-15T13:51:32;8.80;70.30
55828;DHT22;41758;51.992;5.890;2022-12-15T13:54:12;8.80;70.10
55828;DHT22;41758;51.992;5.890;2022-12-15T13:59:19;8.80;69.60
55828;DHT22;41758;51.992;5.890;2022-12-15T14:01:49;8.70;69.60
55828;DHT22;41758;51.992;5.890;2022-12-15T14:04:16;8.70;69.10
55828;DHT22;41758;51.992;5.890;2022-12-15T14:06:53;8.60;69.50
55828;DHT22;41758;51.992;5.890;2022-12-15T14:09:27;8.60;69.60
55828;DHT22;41758;51.992;5.890;2022-12-15T14:11:55;8.50;69.90
55828;DHT22;41758;51.992;5.890;2022-12-15T14:14:23;8.50;69.90
55828;DHT22;41758;51.992;5.890;2022-12-15T14:16:50;8.40;70.00
55828;DHT22;41758;51.992;5.890;2022-12-15T14:19:17;8.50;69.90
55828;DHT22;41758;51.992;5.890;2022-12-15T14:21:51;8.50;69.60
55828;DHT22;41758;51.992;5.890;2022-12-15T14:24:22;8.40;69.50
55828;DHT22;41758;51.992;5.890;2022-12-15T14:26:50;8.40;69.80
55828;DHT22;41758;51.992;5.890;2022-12-15T14:29:19;8.40;69.70
55828;DHT22;41758;51.992;5.890;2022-12-15T14:31:57;8.40;69.60
55828;DHT22;41758;51.992;5.890;2022-12-15T14:34:56;8.50;69.70
55828;DHT22;41758;51.992;5.890;2022-12-15T14:37:37;8.50;68.70
55828;DHT22;41758;51.992;5.890;2022-12-15T14:40:14;8.50;69.20
55828;DHT22;41758;51.992;5.890;2022-12-15T14:42:56;8.60;69.90
55828;DHT22;41758;51.992;5.890;2022-12-15T14:46:03;8.50;70.30
55828;DHT22;41758;51.992;5.890;2022-12-15T14:48:43;8.50;70.40
55828;DHT22;41758;51.992;5.890;2022-12-15T14:51:40;8.60;70.60
55828;DHT22;41758;51.992;5.890;2022-12-15T14:54:33;8.60;70.50
55828;DHT22;41758;51.992;5.890;2022-12-15T14:57:36;8.70;70.60
55828;DHT22;41758;51.992;5.890;2022-12-15T15:05:34;8.80;69.50
55828;DHT22;41758;51.992;5.890;2022-12-15T15:08:03;8.80;68.90
55828;DHT22;41758;51.992;5.890;2022-12-15T15:10:29;8.70;68.80
55828;DHT22;41758;51.992;5.890;2022-12-15T15:12:54;8.70;68.90
55828;DHT22;41758;51.992;5.890;2022-12-15T15:15:23;8.70;69.10
55828;DHT22;41758;51.992;5.890;2022-12-15T15:17:50;8.60;69.10
55828;DHT22;41758;51.992;5.890;2022-12-15T15:20:26;8.50;69.50
55828;DHT22;41758;51.992;5.890;2022-12-15T15:30:39;8.40;69.00
55828;DHT22;41758;51.992;5.890;2022-12-15T15:33:06;8.30;69.30
55828;DHT22;41758;51.992;5.890;2022-12-15T15:35:33;8.30;69.50
55828;DHT22;41758;51.992;5.890;2022-12-15T15:38:21;8.20;69.50
55828;DHT22;41758;51.992;5.890;2022-12-15T15:40:51;8.20;69.40
55828;DHT22;41758;51.992;5.890;2022-12-15T15:43:17;8.10;69.60
55828;DHT22;41758;51.992;5.890;2022-12-15T15:45:43;8.10;69.70
55828;DHT22;41758;51.992;5.890;2022-12-15T15:48:13;8.00;69.70
55828;DHT22;41758;51.992;5.890;2022-12-15T15:50:44;8.00;69.60
55828;DHT22;41758;51.992;5.890;2022-12-15T15:53:11;8.00;69.60
55828;DHT22;41758;51.992;5.890;2022-12-15T15:55:39;7.90;69.40
55828;DHT22;41758;51.992;5.890;2022-12-15T15:58:08;7.90;69.60
55828;DHT22;41758;51.992;5.890;2022-12-15T16:00:35;7.90;69.60
55828;DHT22;41758;51.992;5.890;2022-12-15T16:03:00;7.90;69.60
55828;DHT22;41758;51.992;5.890;2022-12-15T16:05:26;7.80;69.60
55828;DHT22;41758;51.992;5.890;2022-12-15T16:07:51;7.80;69.60
55828;DHT22;41758;51.992;5.890;2022-12-15T16:10:17;7.80;69.60
55828;DHT22;41758;51.992;5.890;2022-12-15T16:12:47;7.80;69.50
55828;DHT22;41758;51.992;5.890;2022-12-15T16:15:15;7.70;69.50
55828;DHT22;41758;51.992;5.890;2022-12-15T16:17:41;7.70;69.50
55828;DHT22;41758;51.992;5.890;2022-12-15T16:20:07;7.60;69.50
55828;DHT22;41758;51.992;5.890;2022-12-15T16:22:33;7.60;69.50
55828;DHT22;41758;51.992;5.890;2022-12-15T16:24:59;7.60;69.50
55828;DHT22;41758;51.992;5.890;2022-12-15T16:27:24;7.60;69.50
55828;DHT22;41758;51.992;5.890;2022-12-15T16:29:50;7.50;69.40
55828;DHT22;41758;51.992;5.890;2022-12-15T16:32:16;7.50;69.50
55828;DHT22;41758;51.992;5.890;2022-12-15T16:34:41;7.60;69.50
55828;DHT22;41758;51.992;5.890;2022-12-15T16:37:11;7.50;69.50
55828;DHT22;41758;51.992;5.890;2022-12-15T16:39:41;7.50;69.50
55828;DHT22;41758;51.992;5.890;2022-12-15T16:42:07;7.50;69.50
55828;DHT22;41758;51.992;5.890;2022-12-15T16:44:36;7.40;69.40
55828;DHT22;41758;51.992;5.890;2022-12-15T16:47:01;7.40;69.50
55828;DHT22;41758;51.992;5.890;2022-12-15T16:49:27;7.40;69.50
55828;DHT22;41758;51.992;5.890;2022-12-15T16:51:54;7.30;69.50
55828;DHT22;41758;51.992;5.890;2022-12-15T16:54:24;7.30;69.60
55828;DHT22;41758;51.992;5.890;2022-12-15T16:56:51;7.30;69.70
55828;DHT22;41758;51.992;5.890;2022-12-15T16:59:19;7.30;69.80
55828;DHT22;41758;51.992;5.890;2022-12-15T17:01:46;7.30;69.80
55828;DHT22;41758;51.992;5.890;2022-12-15T17:04:12;7.40;69.80
55828;DHT22;41758;51.992;5.890;2022-12-15T17:06:38;7.40;69.80
55828;DHT22;41758;51.992;5.890;2022-12-15T17:09:04;7.40;69.90
55828;DHT22;41758;51.992;5.890;2022-12-15T17:11:30;7.40;69.90
55828;DHT22;41758;51.992;5.890;2022-12-15T17:13:57;7.30;69.90
55828;DHT22;41758;51.992;5.890;2022-12-15T17:16:23;7.30;69.80
55828;DHT22;41758;51.992;5.890;2022-12-15T17:18:50;7.30;69.90
55828;DHT22;41758;51.992;5.890;2022-12-15T17:21:29;7.20;69.80
55828;DHT22;41758;51.992;5.890;2022-12-15T17:23:58;7.20;69.70
55828;DHT22;41758;51.992;5.890;2022-12-15T17:26:27;7.20;69.50
55828;DHT22;41758;51.992;5.890;2022-12-15T17:28:54;7.10;69.40
55828;DHT22;41758;51.992;5.890;2022-12-15T17:31:21;7.10;69.40
55828;DHT22;41758;51.992;5.890;2022-12-15T17:33:47;7.00;69.40
55828;DHT22;41758;51.992;5.890;2022-12-15T17:36:20;7.00;69.50
55828;DHT22;41758;51.992;5.890;2022-12-15T17:38:47;7.00;69.80
55828;DHT22;41758;51.992;5.890;2022-12-15T17:41:15;6.90;69.70
55828;DHT22;41758;51.992;5.890;2022-12-15T17:43:41;6.90;69.70
55828;DHT22;41758;51.992;5.890;2022-12-15T17:46:06;6.90;69.80
55828;DHT22;41758;51.992;5.890;2022-12-15T17:48:32;6.90;69.80
55828;DHT22;41758;51.992;5.890;2022-12-15T17:50:58;6.90;69.90
55828;DHT22;41758;51.992;5.890;2022-12-15T17:53:24;6.80;69.80
55828;DHT22;41758;51.992;5.890;2022-12-15T17:55:50;6.80;69.50
55828;DHT22;41758;51.992;5.890;2022-12-15T18:00:43;6.60;69.00
55828;DHT22;41758;51.992;5.890;2022-12-15T18:03:09;6.50;69.00
55828;DHT22;41758;51.992;5.890;2022-12-15T18:05:36;6.50;69.00
55828;DHT22;41758;51.992;5.890;2022-12-15T18:08:02;6.40;69.10
55828;DHT22;41758;51.992;5.890;2022-12-15T18:10:32;6.40;69.40